Time;durP1;ratioP1;P1;durP2;ratioP2;P2;SDS_P1;SDS_P2;PMS_P1;PMS_P2;Temp;Humidity;BMP_temperature;BMP_pressure;BME280_temperature;BME280_humidity;BME280_pressure;Samples;Min_cycle;Max_cycle;Signal;HPM_P1;HPM_P2
2023/06/01 00:00:07;;;;;;;3.97;2.40;;;;;;;17.55;31.10;100401.63;5111405;28;20196;-60
2023/06/01 00:02:35;;;;;;;3.35;2.00;;;;;;;17.55;30.83;100399.03;5107406;28;20227;-59
2023/06/01 00:05:03;;;;;;;2.30;1.90;;;;;;;17.52;31.01;100391.31;5109897;28;20273;-60
2023/06/01 00:07:32;;;;;;;4.40;2.30;;;;;;;17.50;31.10;100393.13;5106758;28;20204;-60
2023/06/01 00:10:00;;;;;;;4.35;2.20;;;;;;;17.48;31.12;100387.94;5110389;28;20212;-59
2023/06/01 00:12:28;;;;;;;3.92;2.17;;;;;;;17.46;31.38;100386.31;5106212;28;20208;-60
2023/06/01 00:14:57;;;;;;;2.35;1.90;;;;;;;17.43;31.30;100382.06;5106420;28;20726;-59
2023/06/01 00:17:25;;;;;;;4.35;2.10;;;;;;;17.39;31.44;100381.31;5102802;28;20203;-59
2023/06/01 00:19:53;;;;;;;3.50;2.00;;;;;;;17.37;31.36;100382.25;5110658;28;20239;-59
2023/06/01 00:22:23;;;;;;;4.28;2.47;;;;;;;17.34;31.58;100380.63;5107347;28;20206;-64
2023/06/01 00:24:51;;;;;;;3.47;2.30;;;;;;;17.32;31.73;100376.38;5109083;28;20225;-61
2023/06/01 00:27:19;;;;;;;4.00;2.17;;;;;;;17.30;31.48;100379.00;5109879;28;20208;-62
2023/06/01 00:29:47;;;;;;;3.42;2.05;;;;;;;17.27;31.70;100379.13;5105334;28;20647;-60
2023/06/01 00:32:16;;;;;;;3.25;2.20;;;;;;;17.23;31.54;100369.72;5107852;28;20236;-62
2023/06/01 00:34:44;;;;;;;2.63;2.05;;;;;;;17.24;31.34;100368.81;5110102;28;20841;-60
2023/06/01 00:37:12;;;;;;;5.22;1.98;;;;;;;17.24;31.54;100367.97;5107778;28;20196;-62
2023/06/01 00:39:40;;;;;;;4.70;1.92;;;;;;;17.23;31.44;100364.53;5106648;28;20200;-65
2023/06/01 00:42:08;;;;;;;4.13;2.38;;;;;;;17.23;31.28;100367.13;5109895;28;20204;-60
2023/06/01 00:44:36;;;;;;;2.92;2.08;;;;;;;17.22;31.71;100369.75;5106914;28;20662;-60
2023/06/01 00:47:04;;;;;;;4.10;2.25;;;;;;;17.19;31.63;100365.50;5095030;28;20723;-60
2023/06/01 00:49:35;;;;;;;3.72;2.10;;;;;;;17.18;31.43;100363.81;5108529;28;20570;-60
2023/06/01 00:52:03;;;;;;;3.03;2.10;;;;;;;17.16;31.57;100365.63;5108982;28;20212;-59
2023/06/01 00:54:31;;;;;;;3.63;1.88;;;;;;;17.14;30.99;100357.84;5107814;28;20200;-59
2023/06/01 00:56:59;;;;;;;2.95;1.80;;;;;;;17.13;31.32;100358.75;5109641;28;20207;-59
2023/06/01 00:59:26;;;;;;;4.53;1.73;;;;;;;17.13;31.50;100360.50;5109441;28;20223;-61
2023/06/01 01:01:54;;;;;;;3.97;2.13;;;;;;;17.11;31.43;100360.56;5105686;28;20200;-60
2023/06/01 01:04:25;;;;;;;3.38;1.63;;;;;;;17.11;31.63;100362.31;5110000;28;20522;-59
2023/06/01 01:07:03;;;;;;;3.70;1.85;;;;;;;17.06;31.44;100348.59;5107951;28;20196;-60
2023/06/01 01:09:39;;;;;;;4.30;1.98;;;;;;;17.07;31.33;100358.94;5108065;28;20256;-63
2023/06/01 01:12:15;;;;;;;3.03;1.80;;;;;;;17.06;31.51;100356.41;5107119;28;20261;-60
2023/06/01 01:14:49;;;;;;;3.03;1.90;;;;;;;17.04;31.45;100355.59;5106250;28;20256;-60
2023/06/01 01:17:26;;;;;;;1.98;1.83;;;;;;;17.03;31.58;100362.56;5107574;28;20639;-60
2023/06/01 01:19:59;;;;;;;4.05;2.00;;;;;;;17.00;31.37;100356.59;5107897;28;20233;-58
2023/06/01 01:22:57;;;;;;;3.47;2.00;;;;;;;16.97;31.66;100354.94;5110948;28;20204;-65
2023/06/01 01:25:45;;;;;;;2.10;1.75;;;;;;;16.95;31.67;100348.13;5109196;28;20272;-64
2023/06/01 01:28:32;;;;;;;4.18;1.75;;;;;;;16.94;31.69;100344.66;5108026;28;20211;-59
2023/06/01 01:31:02;;;;;;;4.57;1.90;;;;;;;16.90;31.48;100333.50;5099911;28;20214;-59
2023/06/01 01:33:33;;;;;;;5.10;1.73;;;;;;;16.90;31.33;100327.44;5104637;28;20284;-60
2023/06/01 01:36:02;;;;;;;3.45;1.90;;;;;;;16.89;31.48;100331.78;5104477;28;20642;-59
2023/06/01 01:38:30;;;;;;;2.67;1.90;;;;;;;16.88;31.43;100324.88;5112266;28;20237;-61
2023/06/01 01:40:58;;;;;;;3.17;1.60;;;;;;;16.87;31.42;100328.38;5113430;28;20203;-59
2023/06/01 01:43:28;;;;;;;3.50;1.90;;;;;;;16.85;31.20;100332.78;5111392;28;20223;-59
2023/06/01 01:46:08;;;;;;;3.28;1.70;;;;;;;16.82;31.40;100327.66;5110506;28;20287;-59
2023/06/01 01:48:41;;;;;;;2.80;1.85;;;;;;;16.80;31.55;100320.84;5111026;28;20200;-59
2023/06/01 01:51:14;;;;;;;3.47;1.80;;;;;;;16.78;31.74;100325.22;5109335;27;20678;-60
2023/06/01 01:53:44;;;;;;;3.88;1.75;;;;;;;16.76;31.64;100320.09;5112275;28;20215;-66
2023/06/01 01:56:14;;;;;;;2.55;1.75;;;;;;;16.74;31.63;100313.22;5112957;28;20654;-60
2023/06/01 01:58:45;;;;;;;2.33;1.98;;;;;;;16.74;31.65;100323.63;5100457;28;20212;-60
2023/06/01 02:01:13;;;;;;;3.42;1.83;;;;;;;16.70;31.61;100325.44;5113094;28;20196;-61
2023/06/01 02:03:41;;;;;;;3.00;1.70;;;;;;;16.69;31.87;100318.53;5113311;28;20571;-60
2023/06/01 02:06:09;;;;;;;2.00;1.40;;;;;;;16.65;31.82;100312.59;5107995;28;20651;-59
2023/06/01 02:08:36;;;;;;;4.30;1.85;;;;;;;16.61;32.08;100310.16;5106991;27;20209;-60
2023/06/01 02:11:05;;;;;;;1.70;1.60;;;;;;;16.58;32.11;100311.09;5112476;28;20223;-60
2023/06/01 02:13:33;;;;;;;2.58;1.80;;;;;;;16.57;32.35;100308.50;5112231;28;20200;-60
2023/06/01 02:16:02;;;;;;;6.45;1.77;;;;;;;16.54;32.74;100304.28;5111070;28;20218;-62
2023/06/01 02:18:31;;;;;;;2.97;1.80;;;;;;;16.52;32.53;100300.03;5111448;28;20768;-60
2023/06/01 02:20:59;;;;;;;5.65;2.10;;;;;;;16.48;32.42;100301.03;5112746;28;20522;-63
2023/06/01 02:23:28;;;;;;;2.88;2.05;;;;;;;16.45;32.75;100303.72;5110428;28;20295;-59
2023/06/01 02:25:59;;;;;;;3.40;2.15;;;;;;;16.42;32.40;100299.44;5107078;28;20235;-67
2023/06/01 02:28:27;;;;;;;2.35;1.67;;;;;;;16.39;32.80;100299.56;5111753;28;20208;-60
2023/06/01 02:30:55;;;;;;;3.30;2.00;;;;;;;16.38;32.93;100298.69;5111861;28;20536;-60
2023/06/01 02:33:26;;;;;;;3.17;2.28;;;;;;;16.36;33.15;100302.25;5112003;28;20634;-60
2023/06/01 02:35:54;;;;;;;3.83;1.92;;;;;;;16.33;33.18;100300.59;5106562;28;20639;-60
2023/06/01 02:38:23;;;;;;;6.85;2.20;;;;;;;16.29;32.87;100301.59;5110238;28;20227;-60
2023/06/01 02:40:51;;;;;;;3.78;1.83;;;;;;;16.27;33.13;100297.34;5107154;27;20200;-61
2023/06/01 02:43:19;;;;;;;4.00;1.70;;;;;;;16.25;33.53;100302.59;5111104;28;20210;-58
2023/06/01 02:45:47;;;;;;;3.10;1.70;;;;;;;16.23;33.14;100291.38;5110394;28;20199;-62
2023/06/01 02:48:15;;;;;;;4.25;2.05;;;;;;;16.22;33.33;100292.28;5111908;28;20204;-60
2023/06/01 02:50:44;;;;;;;2.03;1.67;;;;;;;16.22;33.63;100301.84;5110944;28;20211;-62
2023/06/01 02:53:12;;;;;;;3.00;1.98;;;;;;;16.22;33.20;100296.63;5112622;28;20247;-59
2023/06/01 02:55:40;;;;;;;4.38;2.25;;;;;;;16.19;33.52;100288.00;5110092;28;20218;-59
2023/06/01 02:58:14;;;;;;;3.35;2.03;;;;;;;16.19;33.62;100292.38;5106542;27;20204;-61
2023/06/01 03:00:43;;;;;;;3.40;1.85;;;;;;;16.17;33.32;100288.97;5109986;28;20211;-62
2023/06/01 03:03:11;;;;;;;2.58;1.80;;;;;;;16.15;33.81;100294.22;5111781;28;20204;-58
2023/06/01 03:05:39;;;;;;;4.03;1.95;;;;;;;16.14;33.79;100286.47;5107822;28;20222;-60
2023/06/01 03:08:09;;;;;;;3.60;2.28;;;;;;;16.13;34.09;100288.22;5110956;28;20196;-58
2023/06/01 03:10:36;;;;;;;4.07;1.90;;;;;;;16.12;33.97;100294.28;5111599;28;20199;-59
2023/06/01 03:13:04;;;;;;;6.18;2.10;;;;;;;16.13;34.57;100295.19;5108764;28;20601;-59
2023/06/01 03:15:33;;;;;;;7.20;2.00;;;;;;;16.10;33.97;100290.06;5106474;28;20200;-59
2023/06/01 03:18:01;;;;;;;3.95;2.08;;;;;;;16.10;34.35;100287.47;5111629;28;20220;-61
2023/06/01 03:20:29;;;;;;;4.35;1.90;;;;;;;16.08;34.41;100284.03;5111249;28;20243;-59
2023/06/01 03:22:58;;;;;;;4.13;2.17;;;;;;;16.06;34.51;100283.25;5112213;28;20251;-59
2023/06/01 03:25:28;;;;;;;3.78;2.28;;;;;;;16.05;34.52;100281.53;5105626;28;20594;-60
2023/06/01 03:27:55;;;;;;;3.45;1.83;;;;;;;16.03;34.94;100278.16;5098754;28;20203;-61
2023/06/01 03:30:23;;;;;;;3.92;2.00;;;;;;;16.01;35.43;100266.94;5096751;27;20204;-60
2023/06/01 03:32:51;;;;;;;6.18;2.45;;;;;;;16.01;35.33;100277.31;5098568;28;20236;-62
2023/06/01 03:35:19;;;;;;;4.13;2.25;;;;;;;15.98;35.65;100270.50;5104911;28;20231;-61
2023/06/01 03:37:47;;;;;;;5.35;2.65;;;;;;;15.98;35.34;100272.22;5102156;28;20215;-61
2023/06/01 03:40:15;;;;;;;5.97;2.30;;;;;;;16.00;35.84;100270.44;5103530;28;20199;-60
2023/06/01 03:42:46;;;;;;;4.32;2.25;;;;;;;16.02;35.96;100279.91;5101148;28;20540;-60
2023/06/01 03:45:15;;;;;;;2.88;2.05;;;;;;;16.02;35.69;100274.72;5095866;28;20209;-60
2023/06/01 03:47:43;;;;;;;5.25;2.40;;;;;;;16.06;35.98;100278.06;5102545;28;20211;-61
2023/06/01 03:50:11;;;;;;;3.25;2.50;;;;;;;16.08;36.21;100284.03;5110336;28;20215;-59
2023/06/01 03:52:40;;;;;;;4.82;2.45;;;;;;;16.08;36.32;100276.25;5109189;28;20299;-60
2023/06/01 03:55:10;;;;;;;5.32;2.53;;;;;;;16.08;36.17;100269.31;5109755;28;20257;-61
2023/06/01 03:57:38;;;;;;;3.55;2.45;;;;;;;16.11;36.67;100273.56;5107786;28;20291;-61
2023/06/01 04:00:18;;;;;;;5.60;2.88;;;;;;;16.14;36.73;100279.53;5110938;28;20196;-60
2023/06/01 04:02:52;;;;;;;5.07;2.55;;;;;;;16.19;36.83;100274.16;5105649;28;20248;-66
2023/06/01 04:05:20;;;;;;;7.68;2.50;;;;;;;16.24;36.63;100274.91;5102169;28;20261;-60
2023/06/01 04:07:50;;;;;;;5.45;2.80;;;;;;;16.27;36.88;100276.53;5109307;28;20230;-60
2023/06/01 04:10:18;;;;;;;5.03;2.67;;;;;;;16.32;36.77;100269.44;5110406;28;20265;-61
2023/06/01 04:12:48;;;;;;;6.43;2.65;;;;;;;16.40;37.44;100273.50;5107818;28;20216;-61
2023/06/01 04:15:18;;;;;;;4.22;2.53;;;;;;;16.45;37.21;100268.16;5107252;28;20231;-61
2023/06/01 04:17:46;;;;;;;5.68;2.97;;;;;;;16.52;37.17;100264.44;5109435;28;20196;-59
2023/06/01 04:20:16;;;;;;;5.82;2.80;;;;;;;16.58;37.25;100264.25;5106163;28;20196;-62
2023/06/01 04:22:45;;;;;;;4.50;2.50;;;;;;;16.61;37.33;100260.72;5108763;28;20204;-64
2023/06/01 04:25:17;;;;;;;4.82;2.75;;;;;;;16.69;37.14;100255.25;5110335;28;20204;-61
2023/06/01 04:27:48;;;;;;;3.50;2.72;;;;;;;16.77;37.21;100253.28;5109456;28;20615;-66
2023/06/01 04:30:18;;;;;;;6.05;2.88;;;;;;;16.83;37.06;100253.91;5107714;28;20208;-59
2023/06/01 04:32:48;;;;;;;5.43;2.80;;;;;;;16.88;37.02;100252.00;5101610;28;20710;-60
2023/06/01 04:35:17;;;;;;;4.80;2.70;;;;;;;16.93;37.39;100249.22;5102158;28;20560;-62
2023/06/01 04:37:45;;;;;;;6.68;3.25;;;;;;;16.92;37.54;100244.09;5107747;28;20211;-65
2023/06/01 04:40:13;;;;;;;4.43;2.83;;;;;;;16.94;37.45;100239.66;5109007;28;20208;-61
2023/06/01 04:42:45;;;;;;;4.00;2.65;;;;;;;16.97;37.54;100245.63;5106521;28;20200;-63
2023/06/01 04:45:13;;;;;;;5.22;2.97;;;;;;;17.04;37.24;100246.25;5105159;28;20690;-64
2023/06/01 04:47:44;;;;;;;4.30;3.22;;;;;;;17.10;37.40;100240.84;5096786;28;20287;-60
2023/06/01 04:50:15;;;;;;;7.10;2.80;;;;;;;17.21;37.65;100237.88;5106828;28;20666;-60
2023/06/01 04:52:44;;;;;;;8.00;3.58;;;;;;;17.31;37.16;100240.09;5107705;28;20295;-61
2023/06/01 04:55:13;;;;;;;7.75;3.05;;;;;;;17.39;37.39;100238.03;5107549;28;20596;-58
2023/06/01 04:57:43;;;;;;;5.97;3.00;;;;;;;17.50;36.88;100234.19;5105048;28;20207;-61
2023/06/01 05:00:13;;;;;;;6.07;3.20;;;;;;;17.58;37.28;100233.00;5111454;28;20262;-61
2023/06/01 05:02:43;;;;;;;6.13;3.20;;;;;;;17.74;37.15;100232.41;5109778;28;20196;-60
2023/06/01 05:05:13;;;;;;;4.75;3.17;;;;;;;17.91;37.07;100226.59;5110029;28;20283;-60
2023/06/01 05:07:41;;;;;;;7.70;3.10;;;;;;;18.13;36.72;100224.00;5107005;28;20226;-62
2023/06/01 05:10:11;;;;;;;5.20;3.47;;;;;;;18.35;36.04;100224.84;5105452;28;20200;-59
2023/06/01 05:12:39;;;;;;;4.65;2.92;;;;;;;18.54;35.67;100219.69;5105655;28;20233;-62
2023/06/01 05:15:10;;;;;;;6.38;3.15;;;;;;;18.80;35.34;100216.88;5114806;28;20206;-61
2023/06/01 05:17:39;;;;;;;4.88;3.40;;;;;;;19.05;35.17;100215.81;5105383;28;20203;-63
2023/06/01 05:20:11;;;;;;;6.30;3.50;;;;;;;19.31;34.80;100210.28;5111056;28;20200;-59
2023/06/01 05:22:39;;;;;;;6.95;3.58;;;;;;;19.56;34.39;100209.16;5107140;27;20566;-63
2023/06/01 05:25:08;;;;;;;5.47;3.10;;;;;;;19.85;33.78;100205.22;5112719;28;20214;-61
2023/06/01 05:27:36;;;;;;;9.45;3.47;;;;;;;20.22;33.71;100212.16;5112442;28;20196;-59
2023/06/01 05:30:06;;;;;;;8.52;3.42;;;;;;;20.62;32.99;100206.72;5108355;28;20676;-61
2023/06/01 05:32:34;;;;;;;4.72;3.45;;;;;;;20.92;32.29;100202.56;5104952;27;20323;-60
2023/06/01 05:35:03;;;;;;;7.97;3.40;;;;;;;21.16;31.64;100203.03;5108142;28;20207;-59
2023/06/01 05:37:33;;;;;;;3.92;2.83;;;;;;;21.41;30.99;100201.75;5113366;28;20199;-62
2023/06/01 05:40:03;;;;;;;8.07;3.05;;;;;;;21.62;30.48;100203.22;5110434;27;20204;-66
2023/06/01 05:42:31;;;;;;;6.75;4.05;;;;;;;21.87;30.58;100197.47;5111523;27;20261;-64
2023/06/01 05:44:59;;;;;;;6.72;2.85;;;;;;;22.02;29.71;100206.25;5113541;28;20222;-61
2023/06/01 05:47:27;;;;;;;8.98;3.38;;;;;;;21.93;29.77;100197.09;5111974;28;20204;-62
2023/06/01 05:49:55;;;;;;;4.25;3.00;;;;;;;21.85;29.66;100194.06;5113117;28;20204;-61
2023/06/01 05:52:24;;;;;;;6.35;3.28;;;;;;;21.81;29.66;100200.44;5113534;28;20647;-60
2023/06/01 05:54:53;;;;;;;5.93;4.47;;;;;;;21.94;29.73;100201.44;5114020;28;20247;-60
2023/06/01 05:57:21;;;;;;;8.18;3.60;;;;;;;22.18;29.29;100198.38;5108259;27;20211;-60
2023/06/01 05:59:49;;;;;;;7.05;3.72;;;;;;;22.44;29.20;100191.63;5109131;28;20741;-62
2023/06/01 06:02:17;;;;;;;4.45;3.33;;;;;;;22.73;28.97;100195.16;5112959;27;20196;-62
2023/06/01 06:04:45;;;;;;;6.55;2.83;;;;;;;23.06;28.40;100194.09;5101093;27;20241;-60
2023/06/01 06:07:13;;;;;;;10.32;3.50;;;;;;;23.33;27.89;100196.81;5108894;28;20532;-61
2023/06/01 06:09:41;;;;;;;7.22;2.90;;;;;;;23.51;27.42;100195.66;5113459;28;20202;-63
2023/06/01 06:12:11;;;;;;;8.13;4.32;;;;;;;23.72;27.22;100192.66;5109046;28;20226;-61
2023/06/01 06:14:39;;;;;;;7.32;3.38;;;;;;;23.98;27.13;100186.53;5100506;28;20227;-62
2023/06/01 06:17:09;;;;;;;9.13;3.35;;;;;;;24.29;26.60;100181.88;5102887;28;20508;-65
2023/06/01 06:19:37;;;;;;;5.50;3.28;;;;;;;24.40;26.33;100189.94;5112740;28;20200;-61
2023/06/01 06:22:05;;;;;;;8.18;3.30;;;;;;;24.37;26.39;100184.84;5113449;28;20208;-62
2023/06/01 06:24:33;;;;;;;4.70;3.05;;;;;;;24.34;26.56;100183.28;5108134;28;20191;-62
2023/06/01 06:27:01;;;;;;;5.47;3.40;;;;;;;24.39;26.27;100176.84;5111016;28;20208;-64
2023/06/01 06:29:31;;;;;;;7.65;3.13;;;;;;;24.57;26.35;100176.50;5112488;28;20654;-61
2023/06/01 06:31:59;;;;;;;7.28;3.63;;;;;;;24.89;25.93;100180.50;5111357;28;20200;-61
2023/06/01 06:34:33;;;;;;;7.35;3.22;;;;;;;24.97;24.99;100184.31;5110308;27;20216;-63
2023/06/01 06:37:01;;;;;;;7.90;3.30;;;;;;;24.87;25.05;100183.25;5112765;28;20212;-61
2023/06/01 06:39:29;;;;;;;7.88;3.08;;;;;;;25.03;25.07;100175.94;5111143;28;20210;-60
2023/06/01 06:41:57;;;;;;;5.63;2.90;;;;;;;25.39;24.23;100177.00;5108906;28;20696;-62
2023/06/01 06:44:26;;;;;;;7.25;2.58;;;;;;;25.67;23.98;100167.94;5109806;28;20229;-66
2023/06/01 06:46:55;;;;;;;5.93;3.33;;;;;;;26.06;24.18;100173.06;5111861;28;20203;-63
2023/06/01 06:49:23;;;;;;;6.22;3.15;;;;;;;26.46;23.43;100174.44;5107930;28;20256;-63
2023/06/01 06:51:51;;;;;;;6.40;2.90;;;;;;;26.75;22.99;100174.03;5112553;28;20196;-62
2023/06/01 06:54:19;;;;;;;5.07;2.72;;;;;;;27.16;22.70;100175.28;5106923;28;20978;-62
2023/06/01 06:56:47;;;;;;;3.88;2.60;;;;;;;27.21;22.37;100168.69;5109433;28;20533;-62
2023/06/01 06:59:15;;;;;;;4.43;3.05;;;;;;;27.26;22.30;100168.31;5100835;28;20662;-62
2023/06/01 07:01:43;;;;;;;4.10;2.38;;;;;;;27.40;22.17;100167.22;5108581;28;20681;-61
2023/06/01 07:04:12;;;;;;;5.00;2.75;;;;;;;27.72;21.74;100161.09;5110043;28;20200;-61
2023/06/01 07:06:40;;;;;;;6.43;2.47;;;;;;;27.96;20.95;100163.59;5110176;28;20227;-61
2023/06/01 07:09:09;;;;;;;9.88;2.63;;;;;;;28.13;20.79;100157.72;5110705;28;20207;-60
2023/06/01 07:11:37;;;;;;;7.43;2.30;;;;;;;28.31;20.04;100150.88;5111070;28;20196;-60
2023/06/01 07:14:05;;;;;;;5.10;2.40;;;;;;;28.58;19.94;100166.31;5107272;28;20212;-61
2023/06/01 07:16:33;;;;;;;5.55;2.53;;;;;;;28.92;19.62;100162.59;5104185;28;20232;-62
2023/06/01 07:19:01;;;;;;;4.47;2.10;;;;;;;28.99;18.93;100153.16;5103868;27;20639;-60
2023/06/01 07:21:30;;;;;;;4.78;2.03;;;;;;;28.65;19.02;100148.91;5110245;28;20658;-58
2023/06/01 07:23:58;;;;;;;3.75;2.60;;;;;;;28.60;19.76;100152.91;5104343;28;20192;-61
2023/06/01 07:26:28;;;;;;;2.92;2.10;;;;;;;28.73;19.50;100147.41;5110867;28;20643;-61
2023/06/01 07:28:57;;;;;;;5.30;2.17;;;;;;;28.81;19.34;100144.94;5108975;28;20252;-61
2023/06/01 07:31:25;;;;;;;6.30;2.67;;;;;;;28.84;19.35;100140.22;5100515;27;20205;-60
2023/06/01 07:33:55;;;;;;;3.72;2.22;;;;;;;29.01;19.16;100128.16;5109253;28;20594;-61
2023/06/01 07:36:23;;;;;;;6.72;2.38;;;;;;;29.10;19.33;100131.84;5111090;28;20200;-61
2023/06/01 07:38:53;;;;;;;2.88;2.42;;;;;;;29.06;19.68;100133.06;5109465;28;20291;-60
2023/06/01 07:41:21;;;;;;;4.25;2.03;;;;;;;28.76;19.86;100136.56;5110538;28;20200;-62
2023/06/01 07:43:49;;;;;;;7.63;2.55;;;;;;;28.05;20.78;100144.28;5110553;28;20203;-66
2023/06/01 07:46:16;;;;;;;3.35;1.75;;;;;;;27.14;21.29;100145.47;5112024;28;20642;-61
2023/06/01 07:48:44;;;;;;;5.68;2.40;;;;;;;26.29;22.27;100143.16;5109731;28;20231;-60
2023/06/01 07:51:12;;;;;;;8.30;2.15;;;;;;;25.52;23.45;100130.31;5104560;28;20665;-62
2023/06/01 07:53:40;;;;;;;3.20;2.17;;;;;;;24.99;24.05;100140.22;5109345;28;20212;-61
2023/06/01 07:56:10;;;;;;;3.92;1.83;;;;;;;24.56;24.97;100143.19;5103961;28;20210;-62
2023/06/01 07:58:39;;;;;;;3.85;2.25;;;;;;;24.17;25.34;100141.41;5110567;28;20314;-61
2023/06/01 08:01:07;;;;;;;2.55;1.63;;;;;;;23.76;25.22;100146.78;5109230;28;20200;-60
2023/06/01 08:03:37;;;;;;;3.20;1.92;;;;;;;23.40;25.67;100127.09;5109130;28;20547;-59
2023/06/01 08:06:05;;;;;;;2.50;2.00;;;;;;;23.16;26.13;100134.78;5108180;28;20287;-62
2023/06/01 08:08:34;;;;;;;5.43;2.20;;;;;;;23.01;27.09;100133.91;5109698;28;20573;-60
2023/06/01 08:11:02;;;;;;;7.30;1.90;;;;;;;22.89;27.58;100127.59;5108541;28;20681;-60
2023/06/01 08:13:31;;;;;;;2.67;1.80;;;;;;;22.85;28.17;100135.75;5104148;28;20211;-59
2023/06/01 08:15:59;;;;;;;5.50;1.85;;;;;;;22.84;27.62;100131.47;5108201;28;20215;-60
2023/06/01 08:18:28;;;;;;;2.65;1.80;;;;;;;22.72;26.79;100121.69;5105609;28;20200;-59
2023/06/01 08:20:56;;;;;;;5.88;2.60;;;;;;;22.63;27.25;100126.56;5110506;28;20216;-59
2023/06/01 08:23:24;;;;;;;3.05;1.67;;;;;;;22.62;27.54;100126.66;5109697;28;20654;-60
2023/06/01 08:25:52;;;;;;;2.78;2.13;;;;;;;22.63;28.25;100110.78;5098571;28;20651;-59
2023/06/01 08:28:20;;;;;;;5.35;2.08;;;;;;;22.68;28.32;100131.53;5109495;28;20687;-60
2023/06/01 08:30:51;;;;;;;3.83;2.25;;;;;;;22.70;28.06;100119.16;5109313;28;20207;-62
2023/06/01 08:33:19;;;;;;;3.25;2.33;;;;;;;22.69;27.18;100114.84;5108828;28;20236;-61
2023/06/01 08:35:47;;;;;;;3.42;1.80;;;;;;;22.64;27.24;100119.50;5109444;28;20218;-59
2023/06/01 08:38:15;;;;;;;6.47;2.92;;;;;;;22.62;27.67;100117.00;5108358;28;20207;-61
2023/06/01 08:40:46;;;;;;;4.80;2.17;;;;;;;22.61;27.92;100125.81;5106611;28;20223;-59
2023/06/01 08:43:21;;;;;;;4.72;2.13;;;;;;;22.63;28.28;100118.69;5109492;28;20196;-59
2023/06/01 08:45:52;;;;;;;3.05;1.73;;;;;;;22.65;28.13;100108.94;5106067;28;20203;-59
2023/06/01 08:48:20;;;;;;;5.78;2.65;;;;;;;22.70;28.43;100102.56;5103241;28;20218;-59
2023/06/01 08:50:53;;;;;;;5.30;1.98;;;;;;;22.77;28.63;100099.47;5108001;28;20199;-59
2023/06/01 08:53:22;;;;;;;4.63;2.08;;;;;;;22.82;28.17;100104.41;5109623;28;20658;-59
2023/06/01 08:55:52;;;;;;;3.15;2.08;;;;;;;22.84;27.78;100094.69;5112617;28;20234;-61
2023/06/01 08:58:20;;;;;;;3.78;2.15;;;;;;;22.85;28.24;100098.97;5105538;28;20252;-58
2023/06/01 09:00:49;;;;;;;5.57;2.20;;;;;;;22.84;28.44;100094.69;5101507;28;20216;-59
2023/06/01 09:03:18;;;;;;;6.18;2.10;;;;;;;22.84;28.21;100090.25;5103301;28;20253;-59
2023/06/01 09:05:46;;;;;;;5.32;2.10;;;;;;;22.83;28.27;100083.31;5107661;28;20579;-60
2023/06/01 09:08:15;;;;;;;4.05;2.50;;;;;;;22.84;28.07;100086.78;5099862;28;20538;-61
2023/06/01 09:10:44;;;;;;;7.60;2.35;;;;;;;22.85;28.64;100088.47;5114484;28;20204;-61
2023/06/01 09:13:11;;;;;;;2.85;2.00;;;;;;;22.86;28.67;100084.91;5113276;28;20200;-60
2023/06/01 09:15:52;;;;;;;3.65;2.03;;;;;;;22.89;28.68;100089.97;5107507;28;20218;-59
2023/06/01 09:18:22;;;;;;;4.78;2.50;;;;;;;22.93;28.26;100083.63;5106508;28;20638;-60
2023/06/01 09:20:52;;;;;;;3.78;2.42;;;;;;;22.91;28.05;100082.84;5103929;28;20203;-59
2023/06/01 09:23:27;;;;;;;4.68;2.28;;;;;;;22.93;28.48;100078.34;5103597;27;20654;-59
2023/06/01 09:26:06;;;;;;;5.35;2.20;;;;;;;22.97;28.63;100068.50;5113136;28;20202;-60
2023/06/01 09:29:05;;;;;;;3.58;2.13;;;;;;;23.06;28.93;100074.03;5111989;28;20278;-60
2023/06/01 09:31:44;;;;;;;4.35;2.47;;;;;;;23.17;28.87;100068.09;5045919;28;20206;-60
2023/06/01 09:34:18;;;;;;;2.65;2.10;;;;;;;23.32;28.39;100071.53;5103332;28;20230;-60
2023/06/01 09:36:46;;;;;;;3.28;2.10;;;;;;;23.37;28.10;100061.56;5104854;27;20308;-60
2023/06/01 09:39:16;;;;;;;7.15;2.28;;;;;;;23.45;28.44;100064.53;5111339;28;20195;-59
2023/06/01 09:41:49;;;;;;;2.75;2.38;;;;;;;23.49;28.15;100066.03;5105536;28;20215;-62
2023/06/01 09:44:24;;;;;;;3.88;1.98;;;;;;;23.53;28.02;100051.75;5114078;28;20215;-61
2023/06/01 09:46:59;;;;;;;4.05;2.08;;;;;;;23.60;28.07;100060.06;5114517;28;20658;-60
2023/06/01 09:49:30;;;;;;;2.72;2.15;;;;;;;23.68;28.11;100043.84;5107060;28;20196;-58
2023/06/01 09:52:12;;;;;;;4.45;2.60;;;;;;;23.81;28.14;100053.41;5106275;28;20227;-64
2023/06/01 09:54:42;;;;;;;5.70;2.00;;;;;;;23.89;28.04;100042.38;5111484;28;20231;-56
2023/06/01 09:57:11;;;;;;;2.65;2.00;;;;;;;23.98;27.80;100047.03;5113329;28;20204;-59
2023/06/01 09:59:42;;;;;;;6.20;1.98;;;;;;;24.08;28.09;100044.59;5114139;28;20576;-58
2023/06/01 10:02:14;;;;;;;4.05;1.95;;;;;;;24.27;27.76;100045.06;5113901;28;20290;-56
2023/06/01 10:04:48;;;;;;;4.55;2.22;;;;;;;24.50;27.73;100043.50;5111160;28;20646;-58
2023/06/01 10:07:17;;;;;;;4.13;2.20;;;;;;;24.87;27.27;100035.63;5108635;28;20205;-55
2023/06/01 10:09:48;;;;;;;4.13;2.22;;;;;;;25.48;26.84;100041.78;5113671;28;20627;-58
2023/06/01 10:12:16;;;;;;;2.83;2.08;;;;;;;26.40;25.33;100045.44;5113762;28;20567;-63
2023/06/01 10:14:44;;;;;;;3.05;1.90;;;;;;;27.36;24.06;100034.31;5113103;28;20227;-63
2023/06/01 10:17:16;;;;;;;5.63;1.80;;;;;;;28.38;22.62;100027.50;5112256;28;20219;-62
2023/06/01 10:19:45;;;;;;;5.32;1.95;;;;;;;29.40;21.44;100040.66;5109349;27;20203;-62
2023/06/01 10:22:13;;;;;;;5.57;1.70;;;;;;;30.13;20.38;100019.78;5109908;28;20287;-64
2023/06/01 10:24:42;;;;;;;9.43;2.53;;;;;;;30.67;18.92;100020.88;5107316;28;20215;-61
2023/06/01 10:27:17;;;;;;;3.33;2.03;;;;;;;30.95;19.13;100015.56;5110106;28;20200;-61
2023/06/01 10:29:45;;;;;;;4.72;2.10;;;;;;;31.58;18.53;100015.53;5111467;28;20203;-61
2023/06/01 10:32:44;;;;;;;3.95;1.98;;;;;;;32.32;17.76;100010.72;5111661;28;20196;-67
2023/06/01 10:35:53;;;;;;;3.22;2.20;;;;;;;33.09;17.02;100009.72;5108273;28;20219;-61
2023/06/01 10:38:25;;;;;;;4.03;1.90;;;;;;;33.74;16.89;100013.47;5107408;28;20208;-60
2023/06/01 10:41:14;;;;;;;2.78;1.45;;;;;;;34.17;16.29;100008.72;5113156;28;20204;-61
2023/06/01 10:43:42;;;;;;;4.57;1.63;;;;;;;34.56;16.21;99998.91;5107641;28;20203;-61
2023/06/01 10:46:36;;;;;;;6.82;1.85;;;;;;;35.01;16.08;99989.31;5110817;28;20282;-63
2023/06/01 10:49:05;;;;;;;3.42;1.95;;;;;;;35.47;15.06;99994.69;5109768;28;20565;-61
2023/06/01 10:51:34;;;;;;;12.27;2.55;;;;;;;35.83;14.73;99979.78;5110960;28;20270;-61
2023/06/01 10:54:38;;;;;;;3.63;1.92;;;;;;;35.74;14.50;99995.16;5111262;27;20211;-61
2023/06/01 10:57:22;;;;;;;3.15;1.88;;;;;;;35.83;14.13;99983.34;5109561;28;20227;-60
2023/06/01 11:00:16;;;;;;;6.88;2.00;;;;;;;35.51;14.75;99979.94;5111325;28;20253;-61
2023/06/01 11:02:55;;;;;;;4.85;2.28;;;;;;;35.29;15.02;99980.78;5108571;28;20283;-61
2023/06/01 11:05:51;;;;;;;5.32;2.40;;;;;;;35.42;14.90;99974.78;5111240;28;20199;-61
2023/06/01 11:08:55;;;;;;;2.92;2.22;;;;;;;35.65;14.42;99980.16;5100075;27;20291;-62
2023/06/01 11:11:59;;;;;;;3.40;1.95;;;;;;;35.74;14.29;99977.19;5112533;28;20196;-61
2023/06/01 11:14:30;;;;;;;4.32;2.08;;;;;;;35.64;14.18;99967.75;5112881;28;20607;-61
2023/06/01 11:17:27;;;;;;;5.35;2.33;;;;;;;35.61;14.34;99963.63;5100012;28;20311;-60
2023/06/01 11:20:06;;;;;;;4.57;1.95;;;;;;;35.25;14.32;99960.72;5097800;28;20240;-62
2023/06/01 11:22:38;;;;;;;3.42;2.22;;;;;;;34.99;14.72;99959.19;5110146;28;20573;-62
2023/06/01 11:25:09;;;;;;;4.32;2.10;;;;;;;34.85;14.53;99968.00;5111977;28;20203;-61
2023/06/01 11:27:37;;;;;;;4.95;2.20;;;;;;;34.53;14.84;99959.13;5112428;28;20192;-62
2023/06/01 11:30:06;;;;;;;3.40;2.20;;;;;;;34.46;15.16;99957.28;5112416;28;20200;-61
2023/06/01 11:32:40;;;;;;;6.38;2.17;;;;;;;34.56;15.23;99958.78;5111112;28;20233;-61
2023/06/01 11:35:26;;;;;;;4.90;2.28;;;;;;;34.70;15.68;99948.34;5098565;27;20875;-61
2023/06/01 11:37:56;;;;;;;3.50;1.77;;;;;;;34.80;15.24;99943.59;5109005;28;20247;-62
2023/06/01 11:40:26;;;;;;;4.50;2.10;;;;;;;34.46;15.46;99952.75;5106457;28;20572;-60
2023/06/01 11:42:58;;;;;;;3.10;1.75;;;;;;;34.30;16.07;99944.84;5112180;28;20286;-60